sensor_id;sensor_type;location;lat;lon;timestamp;P1;durP1;ratioP1;P2;durP2;ratioP2
39924;SDS011;25592;49.986;11.618;2023-04-24T00:01:28;4.13;;;1.50;;
39924;SDS011;25592;49.986;11.618;2023-04-24T00:04:14;3.28;;;1.60;;
39924;SDS011;25592;49.986;11.618;2023-04-24T00:07:01;3.50;;;1.42;;
39924;SDS011;25592;49.986;11.618;2023-04-24T00:09:47;4.75;;;1.75;;
39924;SDS011;25592;49.986;11.618;2023-04-24T00:12:32;2.85;;;1.50;;
39924;SDS011;25592;49.986;11.618;2023-04-24T00:15:18;3.28;;;1.60;;
39924;SDS011;25592;49.986;11.618;2023-04-24T00:18:03;3.67;;;1.50;;
39924;SDS011;25592;49.986;11.618;2023-04-24T00:20:49;3.00;;;1.50;;
39924;SDS011;25592;49.986;11.618;2023-04-24T00:23:34;3.30;;;1.65;;
39924;SDS011;25592;49.986;11.618;2023-04-24T00:26:19;6.20;;;1.50;;
39924;SDS011;25592;49.986;11.618;2023-04-24T00:29:05;2.95;;;1.58;;
39924;SDS011;25592;49.986;11.618;2023-04-24T00:31:50;3.33;;;1.50;;
39924;SDS011;25592;49.986;11.618;2023-04-24T00:34:36;5.55;;;1.60;;
39924;SDS011;25592;49.986;11.618;2023-04-24T00:37:21;5.13;;;1.60;;
39924;SDS011;25592;49.986;11.618;2023-04-24T00:40:07;4.00;;;1.70;;
39924;SDS011;25592;49.986;11.618;2023-04-24T00:42:52;4.05;;;1.50;;
39924;SDS011;25592;49.986;11.618;2023-04-24T00:45:38;2.42;;;1.30;;
39924;SDS011;25592;49.986;11.618;2023-04-24T00:48:23;3.97;;;1.58;;
39924;SDS011;25592;49.986;11.618;2023-04-24T00:51:09;3.97;;;1.30;;
39924;SDS011;25592;49.986;11.618;2023-04-24T00:53:55;4.82;;;1.30;;
39924;SDS011;25592;49.986;11.618;2023-04-24T00:56:41;2.90;;;1.33;;
39924;SDS011;25592;49.986;11.618;2023-04-24T00:59:27;2.50;;;1.30;;
39924;SDS011;25592;49.986;11.618;2023-04-24T01:02:12;3.88;;;1.60;;
39924;SDS011;25592;49.986;11.618;2023-04-24T01:04:58;4.13;;;1.83;;
39924;SDS011;25592;49.986;11.618;2023-04-24T01:07:45;4.57;;;1.52;;
39924;SDS011;25592;49.986;11.618;2023-04-24T01:10:31;2.72;;;1.55;;
39924;SDS011;25592;49.986;11.618;2023-04-24T01:13:19;3.42;;;1.85;;
39924;SDS011;25592;49.986;11.618;2023-04-24T01:16:06;3.70;;;1.42;;
39924;SDS011;25592;49.986;11.618;2023-04-24T01:18:51;2.22;;;1.38;;
39924;SDS011;25592;49.986;11.618;2023-04-24T01:21:37;3.50;;;1.40;;
39924;SDS011;25592;49.986;11.618;2023-04-24T01:24:23;3.80;;;1.67;;
39924;SDS011;25592;49.986;11.618;2023-04-24T01:27:09;6.07;;;1.45;;
39924;SDS011;25592;49.986;11.618;2023-04-24T01:29:55;5.20;;;1.67;;
39924;SDS011;25592;49.986;11.618;2023-04-24T01:32:40;5.50;;;1.92;;
39924;SDS011;25592;49.986;11.618;2023-04-24T01:35:29;3.42;;;1.50;;
39924;SDS011;25592;49.986;11.618;2023-04-24T01:38:14;5.15;;;1.73;;
39924;SDS011;25592;49.986;11.618;2023-04-24T01:41:00;2.70;;;1.42;;
39924;SDS011;25592;49.986;11.618;2023-04-24T01:43:45;3.85;;;1.50;;
39924;SDS011;25592;49.986;11.618;2023-04-24T01:46:31;3.95;;;1.80;;
39924;SDS011;25592;49.986;11.618;2023-04-24T01:49:16;4.22;;;1.70;;
39924;SDS011;25592;49.986;11.618;2023-04-24T01:52:02;3.80;;;1.80;;
39924;SDS011;25592;49.986;11.618;2023-04-24T01:54:47;3.15;;;1.75;;
39924;SDS011;25592;49.986;11.618;2023-04-24T01:57:33;3.17;;;1.60;;
39924;SDS011;25592;49.986;11.618;2023-04-24T02:00:18;2.65;;;1.60;;
39924;SDS011;25592;49.986;11.618;2023-04-24T02:03:03;3.17;;;1.73;;
39924;SDS011;25592;49.986;11.618;2023-04-24T02:05:49;4.30;;;1.70;;
39924;SDS011;25592;49.986;11.618;2023-04-24T02:08:34;5.32;;;1.60;;
39924;SDS011;25592;49.986;11.618;2023-04-24T02:11:20;3.03;;;1.50;;
39924;SDS011;25592;49.986;11.618;2023-04-24T02:14:05;2.50;;;1.55;;
39924;SDS011;25592;49.986;11.618;2023-04-24T02:16:51;5.68;;;2.10;;
39924;SDS011;25592;49.986;11.618;2023-04-24T02:19:36;4.60;;;1.83;;
39924;SDS011;25592;49.986;11.618;2023-04-24T02:22:21;4.93;;;2.00;;
39924;SDS011;25592;49.986;11.618;2023-04-24T02:25:07;4.50;;;1.67;;
39924;SDS011;25592;49.986;11.618;2023-04-24T02:27:53;7.25;;;1.80;;
39924;SDS011;25592;49.986;11.618;2023-04-24T02:30:38;3.55;;;1.55;;
39924;SDS011;25592;49.986;11.618;2023-04-24T02:33:23;4.53;;;1.60;;
39924;SDS011;25592;49.986;11.618;2023-04-24T02:36:09;3.88;;;1.88;;
39924;SDS011;25592;49.986;11.618;2023-04-24T02:38:54;4.90;;;1.70;;
39924;SDS011;25592;49.986;11.618;2023-04-24T02:41:39;3.53;;;1.85;;
39924;SDS011;25592;49.986;11.618;2023-04-24T02:44:25;4.53;;;2.10;;
39924;SDS011;25592;49.986;11.618;2023-04-24T02:47:10;6.25;;;1.73;;
39924;SDS011;25592;49.986;11.618;2023-04-24T02:49:56;5.32;;;2.10;;
39924;SDS011;25592;49.986;11.618;2023-04-24T02:52:41;6.15;;;1.90;;
39924;SDS011;25592;49.986;11.618;2023-04-24T02:55:26;3.45;;;1.80;;
39924;SDS011;25592;49.986;11.618;2023-04-24T02:58:12;4.00;;;1.88;;
39924;SDS011;25592;49.986;11.618;2023-04-24T03:00:58;3.25;;;1.90;;
39924;SDS011;25592;49.986;11.618;2023-04-24T03:03:44;4.57;;;2.40;;
39924;SDS011;25592;49.986;11.618;2023-04-24T03:06:29;4.45;;;2.53;;
39924;SDS011;25592;49.986;11.618;2023-04-24T03:09:17;3.55;;;2.22;;
39924;SDS011;25592;49.986;11.618;2023-04-24T03:12:03;5.40;;;2.50;;
39924;SDS011;25592;49.986;11.618;2023-04-24T03:14:48;4.13;;;2.55;;
39924;SDS011;25592;49.986;11.618;2023-04-24T03:17:34;4.60;;;2.55;;
39924;SDS011;25592;49.986;11.618;2023-04-24T03:20:19;3.90;;;2.20;;
39924;SDS011;25592;49.986;11.618;2023-04-24T03:23:05;4.05;;;2.15;;
39924;SDS011;25592;49.986;11.618;2023-04-24T03:25:50;5.20;;;2.70;;
39924;SDS011;25592;49.986;11.618;2023-04-24T03:28:35;5.28;;;2.85;;
39924;SDS011;25592;49.986;11.618;2023-04-24T03:31:21;5.50;;;2.55;;
39924;SDS011;25592;49.986;11.618;2023-04-24T03:34:06;4.85;;;2.55;;
39924;SDS011;25592;49.986;11.618;2023-04-24T03:36:51;5.90;;;3.60;;
39924;SDS011;25592;49.986;11.618;2023-04-24T03:39:38;5.57;;;3.00;;
39924;SDS011;25592;49.986;11.618;2023-04-24T03:42:23;4.50;;;2.63;;
39924;SDS011;25592;49.986;11.618;2023-04-24T03:45:09;3.90;;;2.30;;
39924;SDS011;25592;49.986;11.618;2023-04-24T03:47:54;5.85;;;2.13;;
39924;SDS011;25592;49.986;11.618;2023-04-24T03:50:40;5.47;;;2.78;;
39924;SDS011;25592;49.986;11.618;2023-04-24T03:53:25;5.70;;;2.65;;
39924;SDS011;25592;49.986;11.618;2023-04-24T03:56:11;4.55;;;2.88;;
39924;SDS011;25592;49.986;11.618;2023-04-24T03:58:56;5.47;;;3.08;;
39924;SDS011;25592;49.986;11.618;2023-04-24T04:01:42;4.32;;;2.58;;
39924;SDS011;25592;49.986;11.618;2023-04-24T04:04:27;4.10;;;2.65;;
39924;SDS011;25592;49.986;11.618;2023-04-24T04:07:13;9.10;;;3.05;;
39924;SDS011;25592;49.986;11.618;2023-04-24T04:09:59;5.50;;;2.50;;
39924;SDS011;25592;49.986;11.618;2023-04-24T04:12:44;5.47;;;2.55;;
39924;SDS011;25592;49.986;11.618;2023-04-24T04:15:30;5.95;;;2.60;;
39924;SDS011;25592;49.986;11.618;2023-04-24T04:18:15;4.75;;;2.92;;
39924;SDS011;25592;49.986;11.618;2023-04-24T04:21:00;3.88;;;2.20;;
39924;SDS011;25592;49.986;11.618;2023-04-24T04:23:46;4.97;;;2.33;;
39924;SDS011;25592;49.986;11.618;2023-04-24T04:26:31;5.03;;;2.45;;
39924;SDS011;25592;49.986;11.618;2023-04-24T04:29:17;4.20;;;2.22;;
39924;SDS011;25592;49.986;11.618;2023-04-24T04:32:07;4.22;;;2.05;;
39924;SDS011;25592;49.986;11.618;2023-04-24T04:34:52;5.82;;;3.00;;
39924;SDS011;25592;49.986;11.618;2023-04-24T04:37:37;4.88;;;2.35;;
39924;SDS011;25592;49.986;11.618;2023-04-24T04:40:23;4.32;;;2.40;;
39924;SDS011;25592;49.986;11.618;2023-04-24T04:43:08;5.85;;;3.58;;
39924;SDS011;25592;49.986;11.618;2023-04-24T04:45:55;3.03;;;1.73;;
39924;SDS011;25592;49.986;11.618;2023-04-24T04:48:41;5.55;;;1.90;;
39924;SDS011;25592;49.986;11.618;2023-04-24T04:51:26;6.15;;;2.47;;
39924;SDS011;25592;49.986;11.618;2023-04-24T04:54:12;4.20;;;1.85;;
39924;SDS011;25592;49.986;11.618;2023-04-24T04:56:57;4.43;;;1.98;;
39924;SDS011;25592;49.986;11.618;2023-04-24T04:59:42;2.80;;;1.60;;
39924;SDS011;25592;49.986;11.618;2023-04-24T05:02:29;2.85;;;1.70;;
39924;SDS011;25592;49.986;11.618;2023-04-24T05:05:15;6.07;;;2.05;;
39924;SDS011;25592;49.986;11.618;2023-04-24T05:08:01;4.20;;;1.90;;
39924;SDS011;25592;49.986;11.618;2023-04-24T05:10:49;4.28;;;1.60;;
39924;SDS011;25592;49.986;11.618;2023-04-24T05:13:34;5.20;;;1.67;;
39924;SDS011;25592;49.986;11.618;2023-04-24T05:16:24;3.35;;;1.60;;
39924;SDS011;25592;49.986;11.618;2023-04-24T05:19:10;6.97;;;1.63;;
39924;SDS011;25592;49.986;11.618;2023-04-24T05:21:56;3.08;;;1.42;;
39924;SDS011;25592;49.986;11.618;2023-04-24T05:24:42;3.40;;;1.25;;
39924;SDS011;25592;49.986;11.618;2023-04-24T05:27:27;3.03;;;1.40;;
39924;SDS011;25592;49.986;11.618;2023-04-24T05:30:13;2.80;;;1.45;;
39924;SDS011;25592;49.986;11.618;2023-04-24T05:32:59;3.22;;;1.52;;
39924;SDS011;25592;49.986;11.618;2023-04-24T05:35:46;2.15;;;1.17;;
39924;SDS011;25592;49.986;11.618;2023-04-24T05:38:32;3.38;;;1.40;;
39924;SDS011;25592;49.986;11.618;2023-04-24T05:41:17;4.20;;;1.30;;
39924;SDS011;25592;49.986;11.618;2023-04-24T05:44:02;8.30;;;1.75;;
39924;SDS011;25592;49.986;11.618;2023-04-24T05:46:48;5.10;;;2.45;;
39924;SDS011;25592;49.986;11.618;2023-04-24T05:49:33;3.60;;;1.25;;
39924;SDS011;25592;49.986;11.618;2023-04-24T05:52:18;3.63;;;1.33;;
39924;SDS011;25592;49.986;11.618;2023-04-24T05:55:04;3.60;;;1.10;;
39924;SDS011;25592;49.986;11.618;2023-04-24T05:57:50;2.70;;;1.27;;
39924;SDS011;25592;49.986;11.618;2023-04-24T06:00:35;1.90;;;1.08;;
39924;SDS011;25592;49.986;11.618;2023-04-24T06:03:21;4.85;;;1.48;;
39924;SDS011;25592;49.986;11.618;2023-04-24T06:06:07;3.90;;;1.40;;
39924;SDS011;25592;49.986;11.618;2023-04-24T06:08:52;2.30;;;1.05;;
39924;SDS011;25592;49.986;11.618;2023-04-24T06:11:38;2.20;;;1.05;;
39924;SDS011;25592;49.986;11.618;2023-04-24T06:14:23;3.63;;;1.45;;
39924;SDS011;25592;49.986;11.618;2023-04-24T06:17:09;4.13;;;1.30;;
39924;SDS011;25592;49.986;11.618;2023-04-24T06:19:54;3.33;;;1.20;;
39924;SDS011;25592;49.986;11.618;2023-04-24T06:22:39;2.78;;;1.20;;
39924;SDS011;25592;49.986;11.618;2023-04-24T06:25:25;3.08;;;1.10;;
39924;SDS011;25592;49.986;11.618;2023-04-24T06:28:11;4.28;;;1.30;;
39924;SDS011;25592;49.986;11.618;2023-04-24T06:30:57;2.05;;;1.10;;
39924;SDS011;25592;49.986;11.618;2023-04-24T06:33:42;2.17;;;1.05;;
39924;SDS011;25592;49.986;11.618;2023-04-24T06:36:27;2.85;;;1.17;;
39924;SDS011;25592;49.986;11.618;2023-04-24T06:39:13;3.88;;;1.40;;
39924;SDS011;25592;49.986;11.618;2023-04-24T06:41:59;4.78;;;1.25;;
39924;SDS011;25592;49.986;11.618;2023-04-24T06:44:45;3.33;;;1.17;;
39924;SDS011;25592;49.986;11.618;2023-04-24T06:47:30;2.65;;;1.30;;
39924;SDS011;25592;49.986;11.618;2023-04-24T06:50:16;2.72;;;1.10;;
39924;SDS011;25592;49.986;11.618;2023-04-24T06:53:02;4.60;;;1.33;;
39924;SDS011;25592;49.986;11.618;2023-04-24T06:55:47;2.67;;;0.93;;
39924;SDS011;25592;49.986;11.618;2023-04-24T06:58:33;1.77;;;0.85;;
39924;SDS011;25592;49.986;11.618;2023-04-24T07:01:18;2.35;;;0.88;;
39924;SDS011;25592;49.986;11.618;2023-04-24T07:04:04;3.95;;;1.10;;
39924;SDS011;25592;49.986;11.618;2023-04-24T07:06:49;3.83;;;1.30;;
39924;SDS011;25592;49.986;11.618;2023-04-24T07:09:35;2.30;;;1.00;;
39924;SDS011;25592;49.986;11.618;2023-04-24T07:12:23;3.63;;;0.93;;
39924;SDS011;25592;49.986;11.618;2023-04-24T07:15:09;5.75;;;1.13;;
39924;SDS011;25592;49.986;11.618;2023-04-24T07:17:55;3.83;;;1.10;;
39924;SDS011;25592;49.986;11.618;2023-04-24T07:20:40;3.08;;;1.00;;
39924;SDS011;25592;49.986;11.618;2023-04-24T07:23:26;3.05;;;1.15;;
39924;SDS011;25592;49.986;11.618;2023-04-24T07:26:12;1.77;;;0.80;;
39924;SDS011;25592;49.986;11.618;2023-04-24T07:28:59;1.35;;;0.70;;
39924;SDS011;25592;49.986;11.618;2023-04-24T07:31:44;1.58;;;0.70;;
39924;SDS011;25592;49.986;11.618;2023-04-24T07:34:30;2.80;;;0.75;;
39924;SDS011;25592;49.986;11.618;2023-04-24T07:37:15;0.52;;;0.50;;
39924;SDS011;25592;49.986;11.618;2023-04-24T07:40:01;1.15;;;0.65;;
39924;SDS011;25592;49.986;11.618;2023-04-24T07:42:46;1.05;;;0.65;;
39924;SDS011;25592;49.986;11.618;2023-04-24T07:45:32;4.90;;;0.88;;
39924;SDS011;25592;49.986;11.618;2023-04-24T07:48:22;1.17;;;0.75;;
39924;SDS011;25592;49.986;11.618;2023-04-24T07:51:07;1.85;;;0.93;;
39924;SDS011;25592;49.986;11.618;2023-04-24T07:53:55;2.70;;;0.80;;
39924;SDS011;25592;49.986;11.618;2023-04-24T07:56:41;2.22;;;0.80;;
39924;SDS011;25592;49.986;11.618;2023-04-24T07:59:28;2.33;;;1.08;;
39924;SDS011;25592;49.986;11.618;2023-04-24T08:02:13;2.45;;;0.90;;
39924;SDS011;25592;49.986;11.618;2023-04-24T08:04:59;2.20;;;1.08;;
39924;SDS011;25592;49.986;11.618;2023-04-24T08:07:45;3.60;;;1.00;;
39924;SDS011;25592;49.986;11.618;2023-04-24T08:10:33;3.25;;;1.08;;
39924;SDS011;25592;49.986;11.618;2023-04-24T08:13:18;1.67;;;0.95;;
39924;SDS011;25592;49.986;11.618;2023-04-24T08:16:04;2.30;;;0.82;;
39924;SDS011;25592;49.986;11.618;2023-04-24T08:18:49;2.53;;;1.27;;
39924;SDS011;25592;49.986;11.618;2023-04-24T08:21:35;4.60;;;1.00;;
39924;SDS011;25592;49.986;11.618;2023-04-24T08:24:21;3.42;;;1.20;;
39924;SDS011;25592;49.986;11.618;2023-04-24T08:27:07;2.13;;;1.05;;
39924;SDS011;25592;49.986;11.618;2023-04-24T08:29:53;3.33;;;0.90;;
39924;SDS011;25592;49.986;11.618;2023-04-24T08:32:39;2.75;;;1.50;;
39924;SDS011;25592;49.986;11.618;2023-04-24T08:35:24;2.42;;;0.75;;
39924;SDS011;25592;49.986;11.618;2023-04-24T08:38:10;0.90;;;0.80;;
39924;SDS011;25592;49.986;11.618;2023-04-24T08:40:56;2.40;;;1.10;;
39924;SDS011;25592;49.986;11.618;2023-04-24T08:43:42;1.58;;;0.80;;
39924;SDS011;25592;49.986;11.618;2023-04-24T08:46:30;1.85;;;1.08;;
39924;SDS011;25592;49.986;11.618;2023-04-24T08:49:17;1.80;;;0.90;;
39924;SDS011;25592;49.986;11.618;2023-04-24T08:52:02;3.55;;;1.10;;
39924;SDS011;25592;49.986;11.618;2023-04-24T08:54:48;3.72;;;0.90;;
39924;SDS011;25592;49.986;11.618;2023-04-24T08:57:34;3.25;;;1.25;;
39924;SDS011;25592;49.986;11.618;2023-04-24T09:00:22;3.00;;;1.20;;
39924;SDS011;25592;49.986;11.618;2023-04-24T09:03:08;1.98;;;1.00;;
39924;SDS011;25592;49.986;11.618;2023-04-24T09:05:54;2.65;;;1.27;;
39924;SDS011;25592;49.986;11.618;2023-04-24T09:08:41;5.07;;;1.23;;
39924;SDS011;25592;49.986;11.618;2023-04-24T09:11:30;1.67;;;1.02;;
39924;SDS011;25592;49.986;11.618;2023-04-24T09:14:18;2.20;;;1.02;;
39924;SDS011;25592;49.986;11.618;2023-04-24T09:17:04;2.13;;;1.05;;
39924;SDS011;25592;49.986;11.618;2023-04-24T09:19:51;4.88;;;1.50;;
39924;SDS011;25592;49.986;11.618;2023-04-24T09:22:36;2.65;;;1.02;;
39924;SDS011;25592;49.986;11.618;2023-04-24T09:25:22;2.95;;;1.38;;
39924;SDS011;25592;49.986;11.618;2023-04-24T09:28:16;2.85;;;1.10;;
39924;SDS011;25592;49.986;11.618;2023-04-24T09:31:02;1.98;;;1.02;;
39924;SDS011;25592;49.986;11.618;2023-04-24T09:33:59;3.75;;;1.30;;
39924;SDS011;25592;49.986;11.618;2023-04-24T09:36:47;2.38;;;1.10;;
39924;SDS011;25592;49.986;11.618;2023-04-24T09:39:32;2.05;;;1.20;;
39924;SDS011;25592;49.986;11.618;2023-04-24T09:42:17;2.58;;;1.10;;
39924;SDS011;25592;49.986;11.618;2023-04-24T09:45:04;6.60;;;1.38;;
39924;SDS011;25592;49.986;11.618;2023-04-24T09:47:59;2.63;;;1.20;;
39924;SDS011;25592;49.986;11.618;2023-04-24T09:50:45;2.20;;;1.10;;
39924;SDS011;25592;49.986;11.618;2023-04-24T09:53:32;3.25;;;1.30;;
39924;SDS011;25592;49.986;11.618;2023-04-24T09:56:17;2.90;;;1.30;;
39924;SDS011;25592;49.986;11.618;2023-04-24T09:59:05;3.72;;;1.20;;
39924;SDS011;25592;49.986;11.618;2023-04-24T10:01:51;1.85;;;1.00;;
39924;SDS011;25592;49.986;11.618;2023-04-24T10:04:37;3.88;;;1.05;;
39924;SDS011;25592;49.986;11.618;2023-04-24T10:07:25;2.92;;;1.00;;
39924;SDS011;25592;49.986;11.618;2023-04-24T10:10:11;7.03;;;1.42;;
39924;SDS011;25592;49.986;11.618;2023-04-24T10:12:56;2.65;;;1.30;;
39924;SDS011;25592;49.986;11.618;2023-04-24T10:15:42;2.03;;;1.00;;
39924;SDS011;25592;49.986;11.618;2023-04-24T10:18:28;2.72;;;1.20;;
39924;SDS011;25592;49.986;11.618;2023-04-24T10:21:15;2.85;;;1.15;;
39924;SDS011;25592;49.986;11.618;2023-04-24T10:24:01;3.90;;;1.20;;
39924;SDS011;25592;49.986;11.618;2023-04-24T10:26:50;3.75;;;1.60;;
39924;SDS011;25592;49.986;11.618;2023-04-24T10:29:35;4.70;;;1.30;;
39924;SDS011;25592;49.986;11.618;2023-04-24T10:32:22;2.60;;;1.25;;
39924;SDS011;25592;49.986;11.618;2023-04-24T10:35:08;3.08;;;1.30;;
39924;SDS011;25592;49.986;11.618;2023-04-24T10:37:58;2.40;;;1.10;;
39924;SDS011;25592;49.986;11.618;2023-04-24T10:40:47;1.70;;;1.00;;
39924;SDS011;25592;49.986;11.618;2023-04-24T10:43:32;2.50;;;1.23;;
39924;SDS011;25592;49.986;11.618;2023-04-24T10:46:21;3.35;;;1.20;;
39924;SDS011;25592;49.986;11.618;2023-04-24T10:49:07;5.20;;;1.98;;
39924;SDS011;25592;49.986;11.618;2023-04-24T10:51:59;4.70;;;1.10;;
39924;SDS011;25592;49.986;11.618;2023-04-24T10:54:46;4.07;;;1.08;;
39924;SDS011;25592;49.986;11.618;2023-04-24T10:57:32;2.88;;;1.05;;
39924;SDS011;25592;49.986;11.618;2023-04-24T11:00:21;4.15;;;1.23;;
39924;SDS011;25592;49.986;11.618;2023-04-24T11:03:28;2.78;;;1.25;;
39924;SDS011;25592;49.986;11.618;2023-04-24T11:06:14;2.10;;;1.35;;
39924;SDS011;25592;49.986;11.618;2023-04-24T11:09:09;4.32;;;1.30;;
39924;SDS011;25592;49.986;11.618;2023-04-24T11:12:04;2.30;;;1.40;;
39924;SDS011;25592;49.986;11.618;2023-04-24T11:17:42;2.97;;;1.42;;
39924;SDS011;25592;49.986;11.618;2023-04-24T11:20:27;7.60;;;3.30;;
39924;SDS011;25592;49.986;11.618;2023-04-24T11:23:13;3.30;;;1.40;;
39924;SDS011;25592;49.986;11.618;2023-04-24T11:26:21;2.15;;;1.30;;
39924;SDS011;25592;49.986;11.618;2023-04-24T11:29:15;1.98;;;1.10;;
39924;SDS011;25592;49.986;11.618;2023-04-24T11:37:50;1.58;;;0.80;;
39924;SDS011;25592;49.986;11.618;2023-04-24T11:40:59;1.33;;;0.80;;
39924;SDS011;25592;49.986;11.618;2023-04-24T11:43:47;0.90;;;0.52;;
39924;SDS011;25592;49.986;11.618;2023-04-24T11:46:34;1.10;;;0.82;;
39924;SDS011;25592;49.986;11.618;2023-04-24T11:49:20;1.50;;;0.80;;
39924;SDS011;25592;49.986;11.618;2023-04-24T11:52:05;1.20;;;0.85;;
39924;SDS011;25592;49.986;11.618;2023-04-24T11:54:51;1.80;;;1.10;;
39924;SDS011;25592;49.986;11.618;2023-04-24T11:57:36;0.98;;;0.80;;
39924;SDS011;25592;49.986;11.618;2023-04-24T12:00:23;0.93;;;0.65;;
39924;SDS011;25592;49.986;11.618;2023-04-24T12:03:11;1.40;;;0.68;;
39924;SDS011;25592;49.986;11.618;2023-04-24T12:06:06;1.60;;;0.85;;
39924;SDS011;25592;49.986;11.618;2023-04-24T12:08:53;2.55;;;0.98;;
39924;SDS011;25592;49.986;11.618;2023-04-24T12:14:44;1.45;;;0.85;;
39924;SDS011;25592;49.986;11.618;2023-04-24T12:17:34;1.77;;;0.90;;
39924;SDS011;25592;49.986;11.618;2023-04-24T12:20:28;1.77;;;1.00;;
39924;SDS011;25592;49.986;11.618;2023-04-24T12:23:16;0.77;;;0.60;;
39924;SDS011;25592;49.986;11.618;2023-04-24T12:26:05;1.80;;;1.02;;
39924;SDS011;25592;49.986;11.618;2023-04-24T12:28:50;2.70;;;1.00;;
39924;SDS011;25592;49.986;11.618;2023-04-24T12:31:36;1.85;;;1.00;;
39924;SDS011;25592;49.986;11.618;2023-04-24T12:34:22;1.83;;;1.00;;
39924;SDS011;25592;49.986;11.618;2023-04-24T12:37:12;1.63;;;1.10;;
39924;SDS011;25592;49.986;11.618;2023-04-24T12:39:58;1.83;;;1.02;;
39924;SDS011;25592;49.986;11.618;2023-04-24T12:42:49;1.88;;;1.10;;
39924;SDS011;25592;49.986;11.618;2023-04-24T12:45:35;1.27;;;0.88;;
39924;SDS011;25592;49.986;11.618;2023-04-24T12:48:20;2.55;;;1.20;;
39924;SDS011;25592;49.986;11.618;2023-04-24T12:51:07;2.53;;;1.10;;
39924;SDS011;25592;49.986;11.618;2023-04-24T12:53:52;2.28;;;1.20;;
39924;SDS011;25592;49.986;11.618;2023-04-24T12:56:40;2.40;;;1.23;;
39924;SDS011;25592;49.986;11.618;2023-04-24T12:59:25;5.07;;;1.40;;
39924;SDS011;25592;49.986;11.618;2023-04-24T13:02:11;2.47;;;1.40;;
39924;SDS011;25592;49.986;11.618;2023-04-24T13:04:58;1.98;;;1.20;;
39924;SDS011;25592;49.986;11.618;2023-04-24T13:07:43;1.95;;;1.10;;
39924;SDS011;25592;49.986;11.618;2023-04-24T13:10:29;2.30;;;1.20;;
39924;SDS011;25592;49.986;11.618;2023-04-24T13:13:14;1.95;;;1.30;;
39924;SDS011;25592;49.986;11.618;2023-04-24T13:16:00;4.72;;;1.40;;
39924;SDS011;25592;49.986;11.618;2023-04-24T13:18:46;3.38;;;1.10;;
39924;SDS011;25592;49.986;11.618;2023-04-24T13:21:31;1.70;;;1.00;;
39924;SDS011;25592;49.986;11.618;2023-04-24T13:24:17;3.78;;;1.10;;
39924;SDS011;25592;49.986;11.618;2023-04-24T13:27:03;2.17;;;1.30;;
39924;SDS011;25592;49.986;11.618;2023-04-24T13:29:48;1.88;;;1.02;;
39924;SDS011;25592;49.986;11.618;2023-04-24T13:32:34;2.05;;;1.00;;
39924;SDS011;25592;49.986;11.618;2023-04-24T13:35:20;1.90;;;1.15;;
39924;SDS011;25592;49.986;11.618;2023-04-24T13:38:06;2.47;;;1.45;;
39924;SDS011;25592;49.986;11.618;2023-04-24T13:40:53;2.75;;;1.25;;
39924;SDS011;25592;49.986;11.618;2023-04-24T13:43:39;3.42;;;1.13;;
39924;SDS011;25592;49.986;11.618;2023-04-24T13:46:28;6.60;;;1.60;;
39924;SDS011;25592;49.986;11.618;2023-04-24T13:49:14;2.05;;;1.30;;
39924;SDS011;25592;49.986;11.618;2023-04-24T13:52:00;3.03;;;1.40;;
39924;SDS011;25592;49.986;11.618;2023-04-24T13:54:46;3.03;;;1.75;;
39924;SDS011;25592;49.986;11.618;2023-04-24T13:57:31;2.20;;;1.38;;
39924;SDS011;25592;49.986;11.618;2023-04-24T14:00:17;3.22;;;1.52;;
39924;SDS011;25592;49.986;11.618;2023-04-24T14:03:02;2.15;;;1.23;;
39924;SDS011;25592;49.986;11.618;2023-04-24T14:05:48;2.58;;;1.25;;
39924;SDS011;25592;49.986;11.618;2023-04-24T14:08:34;3.40;;;1.27;;
39924;SDS011;25592;49.986;11.618;2023-04-24T14:11:20;2.05;;;1.30;;
39924;SDS011;25592;49.986;11.618;2023-04-24T14:14:06;2.78;;;1.50;;
39924;SDS011;25592;49.986;11.618;2023-04-24T14:16:51;2.70;;;1.50;;
39924;SDS011;25592;49.986;11.618;2023-04-24T14:19:36;4.22;;;1.55;;
39924;SDS011;25592;49.986;11.618;2023-04-24T14:22:22;2.75;;;1.35;;
39924;SDS011;25592;49.986;11.618;2023-04-24T14:25:07;2.65;;;1.50;;
39924;SDS011;25592;49.986;11.618;2023-04-24T14:27:53;2.33;;;1.25;;
39924;SDS011;25592;49.986;11.618;2023-04-24T14:30:39;3.33;;;1.40;;
39924;SDS011;25592;49.986;11.618;2023-04-24T14:33:25;5.20;;;1.40;;
39924;SDS011;25592;49.986;11.618;2023-04-24T14:36:10;2.08;;;1.23;;
39924;SDS011;25592;49.986;11.618;2023-04-24T14:38:56;3.10;;;1.30;;
39924;SDS011;25592;49.986;11.618;2023-04-24T14:41:41;2.72;;;1.33;;
39924;SDS011;25592;49.986;11.618;2023-04-24T14:44:27;1.77;;;1.08;;
39924;SDS011;25592;49.986;11.618;2023-04-24T14:47:14;2.35;;;1.13;;
39924;SDS011;25592;49.986;11.618;2023-04-24T14:50:02;3.10;;;1.20;;
39924;SDS011;25592;49.986;11.618;2023-04-24T14:52:48;2.33;;;1.05;;
39924;SDS011;25592;49.986;11.618;2023-04-24T14:55:33;1.77;;;1.00;;
39924;SDS011;25592;49.986;11.618;2023-04-24T14:58:20;1.90;;;1.00;;
39924;SDS011;25592;49.986;11.618;2023-04-24T15:01:07;2.20;;;1.02;;
39924;SDS011;25592;49.986;11.618;2023-04-24T15:03:52;3.53;;;1.08;;
39924;SDS011;25592;49.986;11.618;2023-04-24T15:06:38;2.28;;;1.20;;
39924;SDS011;25592;49.986;11.618;2023-04-24T15:09:24;2.30;;;1.20;;
39924;SDS011;25592;49.986;11.618;2023-04-24T15:12:10;4.18;;;1.40;;
39924;SDS011;25592;49.986;11.618;2023-04-24T15:14:57;3.20;;;1.40;;
39924;SDS011;25592;49.986;11.618;2023-04-24T15:17:43;2.38;;;1.40;;
39924;SDS011;25592;49.986;11.618;2023-04-24T15:20:29;1.95;;;1.15;;
39924;SDS011;25592;49.986;11.618;2023-04-24T15:23:14;3.17;;;1.33;;
39924;SDS011;25592;49.986;11.618;2023-04-24T15:26:00;3.80;;;1.60;;
39924;SDS011;25592;49.986;11.618;2023-04-24T15:28:46;2.75;;;1.52;;
39924;SDS011;25592;49.986;11.618;2023-04-24T15:31:33;3.20;;;2.20;;
39924;SDS011;25592;49.986;11.618;2023-04-24T15:34:21;6.63;;;3.17;;
39924;SDS011;25592;49.986;11.618;2023-04-24T15:37:06;5.20;;;2.35;;
39924;SDS011;25592;49.986;11.618;2023-04-24T15:39:52;5.68;;;2.50;;
39924;SDS011;25592;49.986;11.618;2023-04-24T15:42:37;6.40;;;2.78;;
39924;SDS011;25592;49.986;11.618;2023-04-24T15:45:22;4.20;;;2.20;;
39924;SDS011;25592;49.986;11.618;2023-04-24T15:48:08;3.47;;;1.80;;
39924;SDS011;25592;49.986;11.618;2023-04-24T15:50:53;4.15;;;1.95;;
39924;SDS011;25592;49.986;11.618;2023-04-24T15:53:39;3.95;;;2.28;;
39924;SDS011;25592;49.986;11.618;2023-04-24T15:56:24;3.25;;;2.05;;
39924;SDS011;25592;49.986;11.618;2023-04-24T15:59:12;2.78;;;1.70;;
39924;SDS011;25592;49.986;11.618;2023-04-24T16:01:57;5.03;;;1.88;;
39924;SDS011;25592;49.986;11.618;2023-04-24T16:04:44;4.35;;;2.78;;
39924;SDS011;25592;49.986;11.618;2023-04-24T16:07:30;4.60;;;2.30;;
39924;SDS011;25592;49.986;11.618;2023-04-24T16:10:16;5.53;;;2.55;;
39924;SDS011;25592;49.986;11.618;2023-04-24T16:13:01;3.05;;;1.80;;
39924;SDS011;25592;49.986;11.618;2023-04-24T16:15:48;3.63;;;2.40;;
39924;SDS011;25592;49.986;11.618;2023-04-24T16:18:34;3.70;;;2.33;;
39924;SDS011;25592;49.986;11.618;2023-04-24T16:21:20;3.70;;;2.10;;
39924;SDS011;25592;49.986;11.618;2023-04-24T16:24:05;4.68;;;2.35;;
39924;SDS011;25592;49.986;11.618;2023-04-24T16:26:51;4.10;;;2.30;;
39924;SDS011;25592;49.986;11.618;2023-04-24T16:29:37;4.30;;;2.40;;
39924;SDS011;25592;49.986;11.618;2023-04-24T16:32:22;5.13;;;2.13;;
39924;SDS011;25592;49.986;11.618;2023-04-24T16:35:07;3.25;;;1.50;;
39924;SDS011;25592;49.986;11.618;2023-04-24T16:37:53;2.67;;;1.70;;